Terminal Aerodrome Forecast
Issued by NWS

Home | Current Version | Previous Version | Text Only | Print | Product List | Glossary On
Versions: 1 2 3 4 5 6 7 8 9 10 11 12 13 14 15 16 17 18 19 20 21 22 23 24 25 26 27 28 29 30 31 32 33 34 35 36 37 38
000
FTUS42 KGSP 260548 CCA
TAFHKY
TAF COR
KHKY 260548Z 2606/2706 02006KT P6SM -RA OVC050
      TEMPO 2608/2610 3SM RA BR BKN022 OVC040
     FM261000 36008KT 5SM -RA BR OVC024
     FM261200 01006KT 4SM -RA BR OVC015
     FM261800 28004KT P6SM OVC050
     FM270100 00000KT P6SM BKN200=

USA.gov is the U.S. government's official web portal to all federal, state and local government web resources and services.